sensor_id;sensor_type;location;lat;lon;timestamp;temperature;humidity
55008;DHT22;40902;45.116;21.296;2023-04-24T00:00:54;384.60;2227.20
55008;DHT22;40902;45.116;21.296;2023-04-24T00:03:22;384.70;2227.20
55008;DHT22;40902;45.116;21.296;2023-04-24T00:05:48;384.60;2227.20
55008;DHT22;40902;45.116;21.296;2023-04-24T00:08:14;384.60;2227.20
55008;DHT22;40902;45.116;21.296;2023-04-24T00:10:40;384.60;2227.20
55008;DHT22;40902;45.116;21.296;2023-04-24T00:13:06;384.60;2227.20
55008;DHT22;40902;45.116;21.296;2023-04-24T00:15:31;384.60;2252.80
55008;DHT22;40902;45.116;21.296;2023-04-24T00:17:57;384.60;2252.80
55008;DHT22;40902;45.116;21.296;2023-04-24T00:20:23;384.60;2252.80
55008;DHT22;40902;45.116;21.296;2023-04-24T00:22:49;384.60;2252.80
55008;DHT22;40902;45.116;21.296;2023-04-24T00:25:15;384.70;2252.80
55008;DHT22;40902;45.116;21.296;2023-04-24T00:27:40;384.70;2252.80
55008;DHT22;40902;45.116;21.296;2023-04-24T00:30:06;384.70;2252.80
55008;DHT22;40902;45.116;21.296;2023-04-24T00:32:32;384.70;2252.80
55008;DHT22;40902;45.116;21.296;2023-04-24T00:34:58;384.60;2252.80
55008;DHT22;40902;45.116;21.296;2023-04-24T00:37:24;384.50;2252.80
55008;DHT22;40902;45.116;21.296;2023-04-24T00:39:49;384.50;2252.80
55008;DHT22;40902;45.116;21.296;2023-04-24T00:42:15;384.50;2252.80
55008;DHT22;40902;45.116;21.296;2023-04-24T00:44:41;384.50;2252.80
55008;DHT22;40902;45.116;21.296;2023-04-24T00:47:07;384.50;2252.80
55008;DHT22;40902;45.116;21.296;2023-04-24T00:49:33;384.50;2252.80
55008;DHT22;40902;45.116;21.296;2023-04-24T00:51:58;384.40;2252.80
55008;DHT22;40902;45.116;21.296;2023-04-24T00:54:25;384.40;2252.80
55008;DHT22;40902;45.116;21.296;2023-04-24T00:56:50;384.40;2278.40
55008;DHT22;40902;45.116;21.296;2023-04-24T00:59:17;384.40;2252.80
55008;DHT22;40902;45.116;21.296;2023-04-24T01:01:44;384.40;2252.80
55008;DHT22;40902;45.116;21.296;2023-04-24T01:04:11;384.50;2278.40
55008;DHT22;40902;45.116;21.296;2023-04-24T01:06:39;384.50;2252.80
55008;DHT22;40902;45.116;21.296;2023-04-24T01:09:05;384.40;2252.80
55008;DHT22;40902;45.116;21.296;2023-04-24T01:11:31;384.40;2278.40
55008;DHT22;40902;45.116;21.296;2023-04-24T01:13:57;384.40;2278.40
55008;DHT22;40902;45.116;21.296;2023-04-24T01:16:24;384.40;2278.40
55008;DHT22;40902;45.116;21.296;2023-04-24T01:18:50;384.30;2278.40
55008;DHT22;40902;45.116;21.296;2023-04-24T01:21:17;384.40;2252.80
55008;DHT22;40902;45.116;21.296;2023-04-24T01:23:44;384.40;2278.40
55008;DHT22;40902;45.116;21.296;2023-04-24T01:26:10;384.50;2278.40
55008;DHT22;40902;45.116;21.296;2023-04-24T01:28:37;384.50;2278.40
55008;DHT22;40902;45.116;21.296;2023-04-24T01:31:03;384.50;2278.40
55008;DHT22;40902;45.116;21.296;2023-04-24T01:33:29;384.50;2304.00
55008;DHT22;40902;45.116;21.296;2023-04-24T01:35:54;384.40;2304.00
55008;DHT22;40902;45.116;21.296;2023-04-24T01:38:20;384.40;2329.60
55008;DHT22;40902;45.116;21.296;2023-04-24T01:40:46;384.30;2329.60
55008;DHT22;40902;45.116;21.296;2023-04-24T01:43:12;384.20;2329.60
55008;DHT22;40902;45.116;21.296;2023-04-24T01:45:38;384.10;2329.60
55008;DHT22;40902;45.116;21.296;2023-04-24T01:48:04;384.00;2329.60
55008;DHT22;40902;45.116;21.296;2023-04-24T01:50:30;384.00;2329.60
55008;DHT22;40902;45.116;21.296;2023-04-24T01:52:56;359.30;2329.60
55008;DHT22;40902;45.116;21.296;2023-04-24T01:55:22;359.30;2329.60
55008;DHT22;40902;45.116;21.296;2023-04-24T01:57:47;384.00;2329.60
55008;DHT22;40902;45.116;21.296;2023-04-24T02:00:14;359.30;2329.60
55008;DHT22;40902;45.116;21.296;2023-04-24T02:02:40;359.30;2329.60
55008;DHT22;40902;45.116;21.296;2023-04-24T02:05:07;359.30;2329.60
55008;DHT22;40902;45.116;21.296;2023-04-24T02:07:33;359.30;2329.60
55008;DHT22;40902;45.116;21.296;2023-04-24T02:09:59;359.30;2329.60
55008;DHT22;40902;45.116;21.296;2023-04-24T02:12:25;359.30;2329.60
55008;DHT22;40902;45.116;21.296;2023-04-24T02:14:50;359.30;2329.60
55008;DHT22;40902;45.116;21.296;2023-04-24T02:17:16;359.30;2329.60
55008;DHT22;40902;45.116;21.296;2023-04-24T02:19:43;359.30;2329.60
55008;DHT22;40902;45.116;21.296;2023-04-24T02:22:08;359.30;2329.60
55008;DHT22;40902;45.116;21.296;2023-04-24T02:24:34;384.00;2329.60
55008;DHT22;40902;45.116;21.296;2023-04-24T02:27:00;384.00;2329.60
55008;DHT22;40902;45.116;21.296;2023-04-24T02:29:25;384.00;2329.60
55008;DHT22;40902;45.116;21.296;2023-04-24T02:31:51;359.30;2329.60
55008;DHT22;40902;45.116;21.296;2023-04-24T02:34:17;359.30;2329.60
55008;DHT22;40902;45.116;21.296;2023-04-24T02:36:42;384.00;2329.60
55008;DHT22;40902;45.116;21.296;2023-04-24T02:39:08;384.00;2329.60
55008;DHT22;40902;45.116;21.296;2023-04-24T02:41:34;384.00;2329.60
55008;DHT22;40902;45.116;21.296;2023-04-24T02:43:59;384.00;2329.60
55008;DHT22;40902;45.116;21.296;2023-04-24T02:46:25;384.00;2329.60
55008;DHT22;40902;45.116;21.296;2023-04-24T02:48:51;384.00;2329.60
55008;DHT22;40902;45.116;21.296;2023-04-24T02:51:17;384.00;2329.60
55008;DHT22;40902;45.116;21.296;2023-04-24T02:53:43;384.10;2329.60
55008;DHT22;40902;45.116;21.296;2023-04-24T02:56:09;384.10;2329.60
55008;DHT22;40902;45.116;21.296;2023-04-24T02:58:37;384.20;2304.00
55008;DHT22;40902;45.116;21.296;2023-04-24T03:01:03;384.20;2304.00
55008;DHT22;40902;45.116;21.296;2023-04-24T03:03:29;384.20;2304.00
55008;DHT22;40902;45.116;21.296;2023-04-24T03:05:55;384.20;2329.60
55008;DHT22;40902;45.116;21.296;2023-04-24T03:08:21;384.30;2329.60
55008;DHT22;40902;45.116;21.296;2023-04-24T03:10:46;384.30;2304.00
55008;DHT22;40902;45.116;21.296;2023-04-24T03:13:12;384.30;2329.60
55008;DHT22;40902;45.116;21.296;2023-04-24T03:15:38;384.40;2304.00
55008;DHT22;40902;45.116;21.296;2023-04-24T03:18:03;384.40;2304.00
55008;DHT22;40902;45.116;21.296;2023-04-24T03:20:29;384.40;2304.00
55008;DHT22;40902;45.116;21.296;2023-04-24T03:22:55;384.50;2304.00
55008;DHT22;40902;45.116;21.296;2023-04-24T03:25:21;384.50;2329.60
55008;DHT22;40902;45.116;21.296;2023-04-24T03:27:47;384.50;2329.60
55008;DHT22;40902;45.116;21.296;2023-04-24T03:30:13;384.50;2329.60
55008;DHT22;40902;45.116;21.296;2023-04-24T03:32:38;384.40;2329.60
55008;DHT22;40902;45.116;21.296;2023-04-24T03:35:06;384.40;2329.60
55008;DHT22;40902;45.116;21.296;2023-04-24T03:37:33;384.40;2329.60
55008;DHT22;40902;45.116;21.296;2023-04-24T03:39:58;384.40;2329.60
55008;DHT22;40902;45.116;21.296;2023-04-24T03:42:24;384.40;2329.60
55008;DHT22;40902;45.116;21.296;2023-04-24T03:44:50;384.40;2329.60
55008;DHT22;40902;45.116;21.296;2023-04-24T03:47:15;384.40;2329.60
55008;DHT22;40902;45.116;21.296;2023-04-24T03:49:41;384.40;2329.60
55008;DHT22;40902;45.116;21.296;2023-04-24T03:52:07;384.40;2329.60
55008;DHT22;40902;45.116;21.296;2023-04-24T03:54:32;384.40;2329.60
55008;DHT22;40902;45.116;21.296;2023-04-24T03:56:58;384.40;2329.60
55008;DHT22;40902;45.116;21.296;2023-04-24T03:59:24;384.40;2329.60
55008;DHT22;40902;45.116;21.296;2023-04-24T04:01:50;384.40;2329.60
55008;DHT22;40902;45.116;21.296;2023-04-24T04:04:15;384.30;2329.60
55008;DHT22;40902;45.116;21.296;2023-04-24T04:06:41;384.30;2329.60
55008;DHT22;40902;45.116;21.296;2023-04-24T04:09:08;384.20;2329.60
55008;DHT22;40902;45.116;21.296;2023-04-24T04:11:34;384.20;2329.60
55008;DHT22;40902;45.116;21.296;2023-04-24T04:14:00;384.10;2329.60
55008;DHT22;40902;45.116;21.296;2023-04-24T04:16:26;384.10;2329.60
55008;DHT22;40902;45.116;21.296;2023-04-24T04:18:52;384.10;2329.60
55008;DHT22;40902;45.116;21.296;2023-04-24T04:21:18;384.10;2329.60
55008;DHT22;40902;45.116;21.296;2023-04-24T04:23:43;384.10;2329.60
55008;DHT22;40902;45.116;21.296;2023-04-24T04:26:10;384.10;2329.60
55008;DHT22;40902;45.116;21.296;2023-04-24T04:28:36;384.10;2329.60
55008;DHT22;40902;45.116;21.296;2023-04-24T04:31:03;384.10;2329.60
55008;DHT22;40902;45.116;21.296;2023-04-24T04:33:28;384.20;2329.60
55008;DHT22;40902;45.116;21.296;2023-04-24T04:35:54;384.10;2329.60
55008;DHT22;40902;45.116;21.296;2023-04-24T04:38:24;384.20;2329.60
55008;DHT22;40902;45.116;21.296;2023-04-24T04:40:49;384.30;2329.60
55008;DHT22;40902;45.116;21.296;2023-04-24T04:43:15;384.40;2329.60
55008;DHT22;40902;45.116;21.296;2023-04-24T04:45:41;384.50;2329.60
55008;DHT22;40902;45.116;21.296;2023-04-24T04:48:09;384.50;2329.60
55008;DHT22;40902;45.116;21.296;2023-04-24T04:50:38;384.60;2329.60
55008;DHT22;40902;45.116;21.296;2023-04-24T04:53:04;384.70;2329.60
55008;DHT22;40902;45.116;21.296;2023-04-24T04:55:30;384.70;2329.60
55008;DHT22;40902;45.116;21.296;2023-04-24T04:57:55;384.80;2329.60
55008;DHT22;40902;45.116;21.296;2023-04-24T05:00:22;384.80;2329.60
55008;DHT22;40902;45.116;21.296;2023-04-24T05:02:50;384.90;2329.60
55008;DHT22;40902;45.116;21.296;2023-04-24T05:05:16;384.90;2329.60
55008;DHT22;40902;45.116;21.296;2023-04-24T05:07:43;384.80;2329.60
55008;DHT22;40902;45.116;21.296;2023-04-24T05:10:09;384.90;2329.60
55008;DHT22;40902;45.116;21.296;2023-04-24T05:12:35;384.90;2329.60
55008;DHT22;40902;45.116;21.296;2023-04-24T05:15:00;384.90;2329.60
55008;DHT22;40902;45.116;21.296;2023-04-24T05:17:26;384.90;2329.60
55008;DHT22;40902;45.116;21.296;2023-04-24T05:19:52;409.60;2355.20
55008;DHT22;40902;45.116;21.296;2023-04-24T05:22:18;384.90;2329.60
55008;DHT22;40902;45.116;21.296;2023-04-24T05:24:46;384.90;2329.60
55008;DHT22;40902;45.116;21.296;2023-04-24T05:27:12;384.90;2329.60
55008;DHT22;40902;45.116;21.296;2023-04-24T05:29:38;384.90;2329.60
55008;DHT22;40902;45.116;21.296;2023-04-24T05:32:04;384.90;2329.60
55008;DHT22;40902;45.116;21.296;2023-04-24T05:34:29;384.90;2329.60
55008;DHT22;40902;45.116;21.296;2023-04-24T05:36:55;409.60;2355.20
55008;DHT22;40902;45.116;21.296;2023-04-24T05:39:21;409.70;2355.20
55008;DHT22;40902;45.116;21.296;2023-04-24T05:41:47;409.70;2355.20
55008;DHT22;40902;45.116;21.296;2023-04-24T05:44:12;409.70;2355.20
55008;DHT22;40902;45.116;21.296;2023-04-24T05:46:38;409.60;2355.20
55008;DHT22;40902;45.116;21.296;2023-04-24T05:49:04;384.90;2329.60
55008;DHT22;40902;45.116;21.296;2023-04-24T05:51:29;384.80;2329.60
55008;DHT22;40902;45.116;21.296;2023-04-24T05:53:57;384.80;2329.60
55008;DHT22;40902;45.116;21.296;2023-04-24T05:56:23;384.70;2329.60
55008;DHT22;40902;45.116;21.296;2023-04-24T05:58:48;384.60;2329.60
55008;DHT22;40902;45.116;21.296;2023-04-24T06:01:14;384.50;2329.60
55008;DHT22;40902;45.116;21.296;2023-04-24T06:03:41;384.50;2329.60
55008;DHT22;40902;45.116;21.296;2023-04-24T06:06:07;384.20;2329.60
55008;DHT22;40902;45.116;21.296;2023-04-24T06:08:34;359.30;2329.60
55008;DHT22;40902;45.116;21.296;2023-04-24T06:11:00;359.10;2329.60
55008;DHT22;40902;45.116;21.296;2023-04-24T06:13:25;359.10;2329.60
55008;DHT22;40902;45.116;21.296;2023-04-24T06:15:52;358.90;2329.60
55008;DHT22;40902;45.116;21.296;2023-04-24T06:18:17;359.10;2329.60
55008;DHT22;40902;45.116;21.296;2023-04-24T06:20:43;358.80;2329.60
55008;DHT22;40902;45.116;21.296;2023-04-24T06:23:09;358.80;2329.60
55008;DHT22;40902;45.116;21.296;2023-04-24T07:29:03;384.20;2329.60
55008;DHT22;40902;45.116;21.296;2023-04-24T07:31:28;359.20;2329.60
55008;DHT22;40902;45.116;21.296;2023-04-24T07:33:54;359.20;2329.60
55008;DHT22;40902;45.116;21.296;2023-04-24T07:36:23;359.20;2329.60
55008;DHT22;40902;45.116;21.296;2023-04-24T07:38:49;359.20;2329.60
55008;DHT22;40902;45.116;21.296;2023-04-24T07:43:41;384.40;2329.60
55008;DHT22;40902;45.116;21.296;2023-04-24T07:46:08;384.10;2329.60
55008;DHT22;40902;45.116;21.296;2023-04-24T07:48:34;384.10;2329.60
55008;DHT22;40902;45.116;21.296;2023-04-24T07:51:00;384.10;2329.60
55008;DHT22;40902;45.116;21.296;2023-04-24T07:53:26;384.20;2329.60
55008;DHT22;40902;45.116;21.296;2023-04-24T07:55:52;384.40;2329.60
55008;DHT22;40902;45.116;21.296;2023-04-24T07:58:17;384.50;2329.60
55008;DHT22;40902;45.116;21.296;2023-04-24T08:00:43;384.40;2329.60
55008;DHT22;40902;45.116;21.296;2023-04-24T08:03:09;384.50;2329.60
55008;DHT22;40902;45.116;21.296;2023-04-24T08:05:34;384.50;2329.60
55008;DHT22;40902;45.116;21.296;2023-04-24T08:08:00;384.50;2329.60
55008;DHT22;40902;45.116;21.296;2023-04-24T08:10:26;384.50;2329.60
55008;DHT22;40902;45.116;21.296;2023-04-24T08:12:52;384.60;2329.60
55008;DHT22;40902;45.116;21.296;2023-04-24T08:15:18;384.60;2329.60
55008;DHT22;40902;45.116;21.296;2023-04-24T08:17:43;384.50;2329.60
55008;DHT22;40902;45.116;21.296;2023-04-24T08:20:10;384.50;2329.60
55008;DHT22;40902;45.116;21.296;2023-04-24T08:22:42;384.40;2329.60
55008;DHT22;40902;45.116;21.296;2023-04-24T08:25:09;384.40;2329.60
55008;DHT22;40902;45.116;21.296;2023-04-24T08:27:36;384.40;2329.60
55008;DHT22;40902;45.116;21.296;2023-04-24T08:30:05;384.30;2329.60
55008;DHT22;40902;45.116;21.296;2023-04-24T08:32:31;384.30;2329.60
55008;DHT22;40902;45.116;21.296;2023-04-24T08:34:57;384.30;2329.60
55008;DHT22;40902;45.116;21.296;2023-04-24T08:37:23;384.30;2329.60
55008;DHT22;40902;45.116;21.296;2023-04-24T08:39:50;384.30;2329.60
55008;DHT22;40902;45.116;21.296;2023-04-24T08:42:17;384.40;2329.60
55008;DHT22;40902;45.116;21.296;2023-04-24T08:44:43;384.40;2329.60
55008;DHT22;40902;45.116;21.296;2023-04-24T08:47:10;384.50;2329.60
55008;DHT22;40902;45.116;21.296;2023-04-24T08:49:37;384.60;2329.60
55008;DHT22;40902;45.116;21.296;2023-04-24T08:52:03;384.70;2329.60
55008;DHT22;40902;45.116;21.296;2023-04-24T08:54:31;384.70;2329.60
55008;DHT22;40902;45.116;21.296;2023-04-24T08:57:00;384.80;2329.60
55008;DHT22;40902;45.116;21.296;2023-04-24T08:59:27;384.90;2329.60
55008;DHT22;40902;45.116;21.296;2023-04-24T09:01:53;409.60;2355.20
55008;DHT22;40902;45.116;21.296;2023-04-24T09:04:20;409.70;2355.20
55008;DHT22;40902;45.116;21.296;2023-04-24T09:06:48;409.70;2355.20
55008;DHT22;40902;45.116;21.296;2023-04-24T09:09:16;409.80;2355.20
55008;DHT22;40902;45.116;21.296;2023-04-24T09:11:43;409.90;2355.20
55008;DHT22;40902;45.116;21.296;2023-04-24T09:14:09;409.90;2355.20
55008;DHT22;40902;45.116;21.296;2023-04-24T09:16:35;409.90;2355.20
55008;DHT22;40902;45.116;21.296;2023-04-24T09:19:01;410.00;2355.20
55008;DHT22;40902;45.116;21.296;2023-04-24T09:21:34;410.00;2355.20
55008;DHT22;40902;45.116;21.296;2023-04-24T09:24:07;410.10;2355.20
55008;DHT22;40902;45.116;21.296;2023-04-24T09:26:35;410.20;2355.20
55008;DHT22;40902;45.116;21.296;2023-04-24T09:29:02;410.10;2355.20
55008;DHT22;40902;45.116;21.296;2023-04-24T09:31:29;410.20;2355.20
55008;DHT22;40902;45.116;21.296;2023-04-24T09:34:00;410.30;2355.20
55008;DHT22;40902;45.116;21.296;2023-04-24T09:36:31;410.30;2355.20
55008;DHT22;40902;45.116;21.296;2023-04-24T09:39:06;410.30;2355.20
55008;DHT22;40902;45.116;21.296;2023-04-24T09:41:33;410.30;2355.20
55008;DHT22;40902;45.116;21.296;2023-04-24T09:44:34;410.30;2355.20
55008;DHT22;40902;45.116;21.296;2023-04-24T09:47:00;410.30;2355.20
55008;DHT22;40902;45.116;21.296;2023-04-24T09:49:32;410.30;2355.20
55008;DHT22;40902;45.116;21.296;2023-04-24T09:52:07;410.40;2355.20
55008;DHT22;40902;45.116;21.296;2023-04-24T09:54:33;410.50;2355.20
55008;DHT22;40902;45.116;21.296;2023-04-24T09:56:59;410.50;2355.20
55008;DHT22;40902;45.116;21.296;2023-04-24T09:59:28;435.20;2355.20
55008;DHT22;40902;45.116;21.296;2023-04-24T10:01:55;435.40;2355.20
55008;DHT22;40902;45.116;21.296;2023-04-24T10:04:21;435.60;2355.20
55008;DHT22;40902;45.116;21.296;2023-04-24T10:06:49;435.40;2355.20
55008;DHT22;40902;45.116;21.296;2023-04-24T10:09:16;435.40;2355.20
55008;DHT22;40902;45.116;21.296;2023-04-24T10:11:46;435.40;2355.20
55008;DHT22;40902;45.116;21.296;2023-04-24T10:14:18;435.40;2355.20
55008;DHT22;40902;45.116;21.296;2023-04-24T10:16:44;435.40;2355.20
55008;DHT22;40902;45.116;21.296;2023-04-24T10:19:12;435.30;2355.20
55008;DHT22;40902;45.116;21.296;2023-04-24T10:21:40;435.30;2355.20
55008;DHT22;40902;45.116;21.296;2023-04-24T10:24:12;435.30;2355.20
55008;DHT22;40902;45.116;21.296;2023-04-24T10:26:40;435.40;2355.20
55008;DHT22;40902;45.116;21.296;2023-04-24T10:29:06;435.40;2355.20
55008;DHT22;40902;45.116;21.296;2023-04-24T10:31:36;435.40;2355.20
55008;DHT22;40902;45.116;21.296;2023-04-24T10:34:03;435.50;2355.20
55008;DHT22;40902;45.116;21.296;2023-04-24T10:36:30;435.70;2355.20
55008;DHT22;40902;45.116;21.296;2023-04-24T10:38:59;435.70;2355.20
55008;DHT22;40902;45.116;21.296;2023-04-24T10:41:26;435.80;2355.20
55008;DHT22;40902;45.116;21.296;2023-04-24T10:44:12;435.80;2355.20
55008;DHT22;40902;45.116;21.296;2023-04-24T10:46:43;435.90;2355.20
55008;DHT22;40902;45.116;21.296;2023-04-24T10:49:09;435.90;2355.20
55008;DHT22;40902;45.116;21.296;2023-04-24T10:51:54;436.00;2355.20
55008;DHT22;40902;45.116;21.296;2023-04-24T10:54:33;436.10;2355.20
55008;DHT22;40902;45.116;21.296;2023-04-24T10:59:44;460.90;2380.80
55008;DHT22;40902;45.116;21.296;2023-04-24T11:02:10;461.00;2380.80
55008;DHT22;40902;45.116;21.296;2023-04-24T11:04:37;461.00;2380.80
55008;DHT22;40902;45.116;21.296;2023-04-24T11:07:03;460.90;2380.80
55008;DHT22;40902;45.116;21.296;2023-04-24T11:09:33;460.90;2380.80
55008;DHT22;40902;45.116;21.296;2023-04-24T11:12:07;461.00;2380.80
55008;DHT22;40902;45.116;21.296;2023-04-24T11:17:30;460.90;2380.80
55008;DHT22;40902;45.116;21.296;2023-04-24T11:20:05;460.90;2380.80
55008;DHT22;40902;45.116;21.296;2023-04-24T11:22:37;460.80;2380.80
55008;DHT22;40902;45.116;21.296;2023-04-24T11:25:03;436.10;2355.20
55008;DHT22;40902;45.116;21.296;2023-04-24T11:27:39;436.10;2355.20
55008;DHT22;40902;45.116;21.296;2023-04-24T11:30:05;436.00;2355.20
55008;DHT22;40902;45.116;21.296;2023-04-24T11:32:38;436.00;2355.20
55008;DHT22;40902;45.116;21.296;2023-04-24T11:37:38;436.00;2355.20
55008;DHT22;40902;45.116;21.296;2023-04-24T11:40:06;436.10;2355.20
55008;DHT22;40902;45.116;21.296;2023-04-24T11:42:39;436.10;2355.20
55008;DHT22;40902;45.116;21.296;2023-04-24T11:45:09;436.10;2355.20
55008;DHT22;40902;45.116;21.296;2023-04-24T11:47:36;436.10;2355.20
55008;DHT22;40902;45.116;21.296;2023-04-24T11:50:04;436.10;2355.20
55008;DHT22;40902;45.116;21.296;2023-04-24T11:52:30;436.00;2355.20
55008;DHT22;40902;45.116;21.296;2023-04-24T11:54:56;436.00;2355.20
55008;DHT22;40902;45.116;21.296;2023-04-24T11:57:24;436.00;2355.20
55008;DHT22;40902;45.116;21.296;2023-04-24T11:59:53;435.90;2355.20
55008;DHT22;40902;45.116;21.296;2023-04-24T12:02:25;435.80;2355.20
55008;DHT22;40902;45.116;21.296;2023-04-24T12:04:52;435.70;2355.20
55008;DHT22;40902;45.116;21.296;2023-04-24T12:07:18;435.60;2355.20
55008;DHT22;40902;45.116;21.296;2023-04-24T12:09:57;435.60;2355.20
55008;DHT22;40902;45.116;21.296;2023-04-24T12:12:26;435.60;2355.20
55008;DHT22;40902;45.116;21.296;2023-04-24T12:14:54;435.60;2355.20
55008;DHT22;40902;45.116;21.296;2023-04-24T12:17:28;435.50;2355.20
55008;DHT22;40902;45.116;21.296;2023-04-24T12:19:58;435.70;2355.20
55008;DHT22;40902;45.116;21.296;2023-04-24T12:22:24;435.70;2355.20
55008;DHT22;40902;45.116;21.296;2023-04-24T12:27:29;435.70;2355.20
55008;DHT22;40902;45.116;21.296;2023-04-24T12:29:59;435.70;2355.20
55008;DHT22;40902;45.116;21.296;2023-04-24T12:32:25;435.60;2355.20
55008;DHT22;40902;45.116;21.296;2023-04-24T12:34:52;435.60;2355.20
55008;DHT22;40902;45.116;21.296;2023-04-24T12:37:18;435.60;2355.20
55008;DHT22;40902;45.116;21.296;2023-04-24T12:40:08;435.60;2355.20
55008;DHT22;40902;45.116;21.296;2023-04-24T12:42:35;435.50;2355.20
55008;DHT22;40902;45.116;21.296;2023-04-24T12:45:04;435.50;2355.20
55008;DHT22;40902;45.116;21.296;2023-04-24T12:47:32;435.40;2355.20
55008;DHT22;40902;45.116;21.296;2023-04-24T12:49:58;435.40;2355.20
55008;DHT22;40902;45.116;21.296;2023-04-24T12:52:25;435.40;2355.20
55008;DHT22;40902;45.116;21.296;2023-04-24T12:54:53;435.30;2355.20
55008;DHT22;40902;45.116;21.296;2023-04-24T12:57:20;435.30;2355.20
55008;DHT22;40902;45.116;21.296;2023-04-24T12:59:46;435.30;2355.20
55008;DHT22;40902;45.116;21.296;2023-04-24T13:02:12;435.20;2355.20
55008;DHT22;40902;45.116;21.296;2023-04-24T13:04:38;435.20;2355.20
55008;DHT22;40902;45.116;21.296;2023-04-24T13:07:04;435.30;2355.20
55008;DHT22;40902;45.116;21.296;2023-04-24T13:09:30;435.30;2355.20
55008;DHT22;40902;45.116;21.296;2023-04-24T13:11:56;435.30;2355.20
55008;DHT22;40902;45.116;21.296;2023-04-24T13:14:23;435.30;2355.20
55008;DHT22;40902;45.116;21.296;2023-04-24T13:16:49;435.30;2355.20
55008;DHT22;40902;45.116;21.296;2023-04-24T13:19:15;435.30;2355.20
55008;DHT22;40902;45.116;21.296;2023-04-24T13:21:41;435.30;2355.20
55008;DHT22;40902;45.116;21.296;2023-04-24T13:24:06;435.30;2355.20
55008;DHT22;40902;45.116;21.296;2023-04-24T13:26:33;435.30;2355.20
55008;DHT22;40902;45.116;21.296;2023-04-24T13:28:59;435.30;2355.20
55008;DHT22;40902;45.116;21.296;2023-04-24T13:31:25;435.30;2355.20
55008;DHT22;40902;45.116;21.296;2023-04-24T13:33:51;435.30;2355.20
55008;DHT22;40902;45.116;21.296;2023-04-24T13:36:17;435.40;2355.20
55008;DHT22;40902;45.116;21.296;2023-04-24T13:38:45;435.40;2355.20
55008;DHT22;40902;45.116;21.296;2023-04-24T13:41:11;435.40;2355.20
55008;DHT22;40902;45.116;21.296;2023-04-24T13:43:37;435.40;2355.20
55008;DHT22;40902;45.116;21.296;2023-04-24T13:46:03;435.40;2355.20
55008;DHT22;40902;45.116;21.296;2023-04-24T13:48:29;435.40;2355.20
55008;DHT22;40902;45.116;21.296;2023-04-24T13:50:55;435.30;2355.20
55008;DHT22;40902;45.116;21.296;2023-04-24T13:53:21;435.30;2355.20
55008;DHT22;40902;45.116;21.296;2023-04-24T13:55:47;435.30;2355.20
55008;DHT22;40902;45.116;21.296;2023-04-24T13:58:13;435.40;2355.20
55008;DHT22;40902;45.116;21.296;2023-04-24T14:00:39;435.40;2355.20
55008;DHT22;40902;45.116;21.296;2023-04-24T14:03:04;435.40;2355.20
55008;DHT22;40902;45.116;21.296;2023-04-24T14:05:30;435.40;2355.20
55008;DHT22;40902;45.116;21.296;2023-04-24T14:07:56;435.40;2355.20
55008;DHT22;40902;45.116;21.296;2023-04-24T14:10:22;435.40;2355.20
55008;DHT22;40902;45.116;21.296;2023-04-24T14:12:48;435.40;2355.20
55008;DHT22;40902;45.116;21.296;2023-04-24T14:15:13;435.30;2355.20
55008;DHT22;40902;45.116;21.296;2023-04-24T14:17:39;435.40;2355.20
55008;DHT22;40902;45.116;21.296;2023-04-24T14:20:06;435.40;2355.20
55008;DHT22;40902;45.116;21.296;2023-04-24T14:22:32;435.40;2355.20
55008;DHT22;40902;45.116;21.296;2023-04-24T14:24:58;435.40;2355.20
55008;DHT22;40902;45.116;21.296;2023-04-24T14:27:24;435.40;2355.20
55008;DHT22;40902;45.116;21.296;2023-04-24T14:29:50;435.50;2355.20
55008;DHT22;40902;45.116;21.296;2023-04-24T14:32:16;435.60;2355.20
55008;DHT22;40902;45.116;21.296;2023-04-24T14:34:42;435.60;2355.20
55008;DHT22;40902;45.116;21.296;2023-04-24T14:37:07;435.60;2355.20
55008;DHT22;40902;45.116;21.296;2023-04-24T14:39:33;435.60;2355.20
55008;DHT22;40902;45.116;21.296;2023-04-24T14:41:59;435.70;2355.20
55008;DHT22;40902;45.116;21.296;2023-04-24T14:44:26;435.70;2355.20
55008;DHT22;40902;45.116;21.296;2023-04-24T14:46:52;435.70;2355.20
55008;DHT22;40902;45.116;21.296;2023-04-24T14:49:18;435.80;2355.20
55008;DHT22;40902;45.116;21.296;2023-04-24T14:51:44;435.90;2355.20
55008;DHT22;40902;45.116;21.296;2023-04-24T14:54:09;435.90;2355.20
55008;DHT22;40902;45.116;21.296;2023-04-24T14:56:35;436.00;2355.20
55008;DHT22;40902;45.116;21.296;2023-04-24T14:59:02;436.10;2355.20
55008;DHT22;40902;45.116;21.296;2023-04-24T15:01:27;436.10;2355.20
55008;DHT22;40902;45.116;21.296;2023-04-24T15:03:53;460.80;2380.80
55008;DHT22;40902;45.116;21.296;2023-04-24T15:06:19;460.80;2380.80
55008;DHT22;40902;45.116;21.296;2023-04-24T15:08:45;460.90;2380.80
55008;DHT22;40902;45.116;21.296;2023-04-24T15:11:11;460.90;2380.80
55008;DHT22;40902;45.116;21.296;2023-04-24T15:13:37;461.00;2380.80
55008;DHT22;40902;45.116;21.296;2023-04-24T15:16:03;461.10;2380.80
55008;DHT22;40902;45.116;21.296;2023-04-24T15:18:29;461.20;2380.80
55008;DHT22;40902;45.116;21.296;2023-04-24T15:20:55;461.50;2380.80
55008;DHT22;40902;45.116;21.296;2023-04-24T15:23:21;461.60;2380.80
55008;DHT22;40902;45.116;21.296;2023-04-24T15:25:47;461.60;2380.80
55008;DHT22;40902;45.116;21.296;2023-04-24T15:28:13;461.50;2380.80
55008;DHT22;40902;45.116;21.296;2023-04-24T15:30:39;461.50;2380.80
55008;DHT22;40902;45.116;21.296;2023-04-24T15:33:04;461.50;2380.80
55008;DHT22;40902;45.116;21.296;2023-04-24T15:35:31;461.50;2380.80
55008;DHT22;40902;45.116;21.296;2023-04-24T15:37:56;461.40;2380.80
55008;DHT22;40902;45.116;21.296;2023-04-24T15:40:22;461.30;2380.80
55008;DHT22;40902;45.116;21.296;2023-04-24T15:42:48;461.30;2380.80
55008;DHT22;40902;45.116;21.296;2023-04-24T15:45:14;461.30;2380.80
55008;DHT22;40902;45.116;21.296;2023-04-24T15:47:40;461.20;2380.80
55008;DHT22;40902;45.116;21.296;2023-04-24T15:50:06;461.20;2380.80